CDT,Max TemperatureF,Mean TemperatureF,Min TemperatureF,Max Dew PointF,MeanDew PointF,Min DewpointF,Max Humidity, Mean Humidity, Min Humidity, Max Sea Level PressureIn, Mean Sea Level PressureIn, Min Sea Level PressureIn, Max VisibilityMiles, Mean VisibilityMiles, Min VisibilityMiles, Max Wind SpeedMPH, Mean Wind SpeedMPH, Max Gust SpeedMPH,PrecipitationIn, CloudCover, Events, WindDirDegrees
2012-10-1,72,58,44,50,42,37,78,55,32,30.01,29.97,29.90,10,10,10,26,10,33,0.00,1,,334
2012-10-2,75,54,34,38,28,19,84,44,12,30.01,29.94,29.86,10,10,7,10,5,,0.00,0,,260
2012-10-3,82,60,37,44,33,28,74,42,14,29.95,29.85,29.76,10,10,10,26,7,33,0.00,0,,164
2012-10-4,59,52,44,44,38,32,85,67,43,30.28,30.15,29.97,10,10,3,26,17,34,0.17,6,Rain,327
2012-10-5,52,44,35,25,23,19,61,44,27,30.32,30.28,30.26,10,10,10,15,10,21,0.00,0,,315
2012-10-6,48,36,25,25,23,19,80,54,37,30.39,30.33,30.30,10,10,10,18,10,25,0.00,2,,331
2012-10-7,57,38,20,31,24,17,93,57,26,30.31,30.17,30.01,10,10,10,18,6,25,0.00,0,,229
2012-10-8,73,56,39,34,31,25,77,47,16,30.00,29.88,29.76,10,10,10,23,13,31,0.00,0,,211
2012-10-9,56,46,36,42,29,18,78,51,25,30.16,29.95,29.79,10,10,10,29,10,36,0.00,1,,324
2012-10-10,65,46,26,29,26,20,81,51,23,30.24,30.14,30.03,10,10,10,16,6,23,0.00,0,,222
2012-10-11,64,52,39,34,30,27,70,47,29,30.35,30.11,29.99,10,10,10,24,10,29,0.00,1,,39
2012-10-12,54,42,31,41,27,18,70,51,28,30.37,30.24,30.00,10,10,10,21,11,25,0.03,5,,101
2012-10-13,75,63,51,63,56,45,97,82,62,29.96,29.74,29.57,10,8,0,20,9,25,0.20,6,Fog-Rain,175
2012-10-14,67,57,47,58,42,34,89,61,30,29.99,29.86,29.62,10,10,5,25,14,33,0.10,1,Rain,316
2012-10-15,76,56,37,48,41,35,91,63,26,29.99,29.89,29.74,10,10,10,15,4,21,0.00,1,,156
2012-10-16,80,63,46,48,43,39,92,56,23,29.73,29.54,29.39,10,10,7,18,8,25,0.00,0,,225
2012-10-17,67,58,51,50,35,15,84,43,19,29.61,29.50,29.33,10,10,7,36,16,47,0.02,4,Rain,287
2012-10-18,52,48,45,41,30,21,85,52,30,29.65,29.57,29.52,10,10,7,39,25,56,0.04,6,Rain,298
2012-10-19,50,44,37,40,39,35,93,80,67,29.82,29.76,29.64,10,10,7,29,19,38,0.00,7,Rain,326
2012-10-20,67,48,30,44,38,30,97,73,34,29.82,29.76,29.67,10,8,0,18,5,23,0.00,1,Fog,141
2012-10-21,80,60,41,62,50,39,91,74,46,29.79,29.73,29.70,10,10,5,13,7,23,0.00,2,,133
2012-10-22,62,57,52,55,52,49,94,84,66,29.82,29.79,29.76,10,7,2,15,10,18,0.00,8,Rain,343
2012-10-23,75,61,49,60,54,49,96,87,60,29.79,29.73,29.65,10,5,0,14,6,17,0.00,6,Fog,234
2012-10-24,55,50,46,54,50,41,97,93,80,29.80,29.76,29.74,10,4,0,20,11,26,0.00,8,Fog-Rain,357
2012-10-25,44,40,32,40,32,27,92,80,70,30.35,30.06,29.66,10,9,1,31,20,41,0.69,8,Rain,334
2012-10-26,42,35,28,27,26,23,82,67,50,30.51,30.44,30.34,10,10,10,15,9,20,0.00,5,,321
2012-10-27,45,34,22,31,26,20,91,72,49,30.42,30.33,30.24,10,10,10,10,4,,0.00,2,,166
2012-10-28,53,41,29,32,30,27,89,64,40,30.31,30.24,30.17,10,10,10,18,8,23,0.00,5,,150
2012-10-29,59,50,40,34,31,30,73,54,34,30.22,30.14,30.07,10,10,10,20,13,26,0.00,3,,147
2012-10-30,55,44,34,32,30,28,85,64,36,30.09,30.06,30.02,10,10,10,15,7,,0.00,3,,102
2012-10-31,62,44,28,37,30,25,89,63,33,30.07,30.03,29.97,10,10,4,7,2,,0.00,1,,179